• Join FlightAware (Why Join?)
  • Login
  • US Flag 
11:26AM EDT


 

Airport Tracker/Info


-or-


 

Live Flight TrackerFlight Track Log ✈ SWA2279 ✈ 20-Jul-2013 ✈ KBWI - KMHT

Flight Track Log - Related Links

Times and Time Zones

All times are in EDT time to prevent confusion due to time zone crossing. See the SWA2279 flight status page for this flight to view local times or setup timezone preferences in your user account.

Time Position Orientation Groundspeed Altitude Reporting Facility
EDT Latitude Longitude Course Direction KTS MPH feet Rate Location/Type
07:53PM 39.1833 -76.7667 339° North 189 217 3,200  Level Potomac TRACON
07:54PM 39.2000 -76.8333 288° West 211 243 6,500 3,180 Climbing Potomac TRACON
07:55PM 39.2167 -76.9167 284° West 264 304 9,300 2,700 Climbing Potomac TRACON
07:57PM 39.2961 -77.0828 302° West 299 344 14,500 2,640 Climbing Washington Center
07:58PM 39.3767 -77.3050 339° North  Level FlightAware Approximate
07:58PM 39.3719 -77.1647 320° Northwest 329 379 17,400  Level Washington Center
07:59PM 39.4522 -77.2497 321° Northwest 355 409 20,100 2,580 Climbing Washington Center
08:01PM 39.6678 -77.4544 324° Northwest 399 459 26,000 2,040 Climbing New York Center
08:02PM 39.7883 -77.4578 359° North 400 460 27,000 1,140 Climbing New York Center
08:03PM 39.9094 -77.4558 North 409 471 28,300 1,440 Climbing New York Center
08:04PM 40.0314 -77.4403 North 423 487 29,900 1,680 Climbing New York Center
08:05PM 40.1392 -77.3367 36° Northeast 444 511 31,700 1,620 Climbing New York Center
08:06PM 40.2342 -77.2422 37° Northeast 451 519 33,200 1,560 Climbing New York Center
08:07PM 40.3206 -77.1114 49° Northeast 462 532 34,900 1,680 Climbing New York Center
08:08PM 40.3989 -76.9686 54° Northeast 469 540 36,600 1,020 Climbing New York Center
08:09PM 40.4792 -76.8258 53° Northeast 475 547 37,000 180 Climbing New York Center
08:10PM 40.5575 -76.6797 55° Northeast 481 554 37,000  Level New York Center
08:11PM 40.6331 -76.5411 54° Northeast 476 548 37,000  Level New York Center
08:12PM 40.7108 -76.3972 54° Northeast 476 548 37,000  Level New York Center
08:13PM 40.7864 -76.2553 55° Northeast 476 548 37,000  Level New York Center
08:14PM 40.8636 -76.1133 54° Northeast 476 548 37,000  Level New York Center
08:15PM 40.9389 -75.9681 56° Northeast 476 548 37,000  Level New York Center
08:16PM 41.0158 -75.8256 54° Northeast 476 548 37,000  Level New York Center
08:17PM 41.0928 -75.6825 54° Northeast 476 548 37,000  Level New York Center
08:18PM 41.1697 -75.5367 55° Northeast 476 548 37,000  Level New York Center
08:19PM 41.2483 -75.3903 54° Northeast 481 554 37,000  Level New York Center
08:20PM 41.3250 -75.2408 56° Northeast 481 554 37,000  Level New York Center
08:21PM 41.4033 -75.0939 55° Northeast 476 548 37,000  Level New York Center
08:24PM 41.5872 -74.7356 55° Northeast 483 556 37,000  Level Boston Center
08:25PM 41.6653 -74.5828 56° Northeast 488 562 37,000 -1,260 Level Boston Center
08:26PM 41.7453 -74.4294 55° Northeast 488 562 34,500 -2,760 Descending Boston Center
08:27PM 41.8292 -74.2678 55° Northeast 489 563 31,500 -2,880 Descending Boston Center
08:28PM 41.9067 -74.1139 56° Northeast 489 563 28,800 -2,460 Descending Boston Center
08:29PM 41.9839 -73.9622 56° Northeast 489 563 26,600 -2,160 Descending Boston Center
08:30PM 42.0564 -73.8158 56° Northeast 483 556 24,500 -1,320 Descending Boston Center
08:31PM 42.1228 -73.6828 56° Northeast 475 547 24,000 -720 Descending Boston Center
08:32PM 42.1908 -73.5414 57° Northeast 475 547 23,100 -1,020 Descending Boston Center
08:33PM 42.2586 -73.4078 56° Northeast 452 520 22,000 -1,080 Descending Boston Center
08:34PM 42.3267 -73.2656 57° Northeast 425 489 21,000 -1,020 Descending Boston Center
08:35PM 42.3878 -73.1317 58° Northeast 432 497 20,000 -1,020 Descending Boston Center
08:36PM 42.4489 -73.0114 55° Northeast 422 486 19,000 -540 Descending Boston Center
08:37PM 42.5142 -72.8767 57° Northeast 417 480 19,000  Level Boston Center
08:38PM 42.5833 -72.7333 57° Northeast 417 480 19,000  Level Boston Center
08:39PM 42.6275 -72.6067 65° Northeast 410 472 19,000 -1,140 Level Boston Center
08:40PM 42.6900 -72.4739 57° Northeast 410 472 16,800 -2,460 Descending Boston Center
08:41PM 42.7567 -72.3411 56° Northeast 415 478 14,100 -3,000 Descending Boston Center
08:42PM 42.8233 -72.1939 58° Northeast 415 478 10,900 -2,040 Descending Boston Center
08:43PM 42.8250 -72.0608 89° East 384 442 10,100 -960 Descending Boston Center
08:44PM 42.8222 -71.9250 92° East 342 394 9,000 -1,320 Descending Boston Center
08:45PM 42.7739 -71.8461 130° Southeast 294 338 7,500 -1,440 Descending Boston Center
08:46PM 42.7172 -71.7506 129° Southeast 299 344 6,200 -1,440 Descending Boston Center
08:47PM 42.7397 -71.6797 67° East 185 213 4,700 -1,260 Descending Boston Center
08:48PM 42.7892 -71.6225 40° Northeast 185 213 3,700 -960 Descending Boston Center
08:49PM 42.8222 -71.5767 45° Northeast 187 215 2,800 -900 Descending Boston Center
08:50PM 42.8636 -71.5308 39° Northeast 180 207 1,900 -960 Descending Boston Center
08:51PM 42.9000 -71.4833 44° Northeast 168 193 1,100 5,700 Descending KA90
08:53PM 42.9564 -71.4189 40° Northeast 159 183 19,000 5,700 Climbing Boston Center
08:54PM 42.9875 -71.3814 41° Northeast 159 183 19,000  Level Boston Center
08:55PM 43.0122 -71.3525 41° Northeast 159 183 19,000  Level Boston Center
08:56PM 43.0431 -71.3181 39° Northeast 159 183 19,000  Level Boston Center
08:57PM 43.0431 -71.3181 144° Southeast 159 183 19,000  Level Boston Center
08:58PM 43.0431 -71.3181 144° Southeast 159 183 19,000  Level Boston Center
09:00PM 42.9328 -71.4358 216° Southwest  Level Estimated
09:07PM 42.9328 -71.4358 216° Southwest  Level Estimated
09:08PM 42.9328 -71.4358 216° Southwest  Level Estimated
09:09PM 42.9328 -71.4358 216° Southwest  Level Estimated
09:10PM 42.9328 -71.4358 216° Southwest  Level Estimated
09:11PM 42.9328 -71.4358 216° Southwest  Level Estimated